Etusivu
METAR-TAF:

METAR-TAF

Lentoasemat :

Coleman, Texas, Yhdysvallat

Leveyspiiri: 31-50-28N, Pituuspiiri: 099-24-12W, korkeus merenpinnasta: 517 m

Tämänhetkinen sää

Tämä raportti tehtiin 33 minuuttia sitten, kello 23.55 UTC
Tuuli 10 kn pohjoisesta
Lämpötila 7°C
Kosteus 93%
Ilmanpaine 1019 hPa
Näkyvyys: 11.3 km
Pilvistä 600 ft:n korkeudessa

METAR: KCOM 072355Z AUTO 35010KT 7SM OVC006 07/06 A3009 RMK AO2 T00660055 10086 20066

Aika: 17:28 (00:28 UTC)


TAF: puuttuu

Säähavainnot ja -ennusteet yli 4000 lentoasemalta (METAR- ja TAF-raportit).

Käytössä olevat sääasemat on merkitty karttaan keltaisilla ja punaisilla pisteillä.

Aseta hiiri pisteen päälle nähdäksesi sääaseman nimen.

Klikkaa sitten nähdäksesi säähavainnot ja -ennusteet.

Kartan vaihtaminen: klikkaa mustalla rastilla varustettuja vihreitä pisteitä, niin voit zoomata sisään; viivalla varustettua vihreää pistettä, niin voit zoomata ulos tai vihreitä nuolia, niin pääset viereisille kartoille.


METAR-TAF: